KFLG/FLG METAR and TAF weather

Enter ICAO airport designator
Station Type Date Time Source
KFLG METAR 2019/02/23 22:57 UTC NOAA

KFLG 232257Z 25005KT 10SM CLR 03/M13 A3016 RMK AO2 SLP225 T00331128


Station Type Date Time Source
KFLG Decoded METAR 2019/02/23 22:57 UTC NOAA

FLAGSTAFF PULLIAM AIRPORT, AZ, United States (KFLG) 35-08N 111-40W 2134M
Feb 23, 2019 - 05:57 PM EST / 2019.02.23 2257 UTC
Wind: from the WSW (250 degrees) at 6 MPH (5 KT):0
Visibility: 10 mile(s):0
Sky conditions: clear
Temperature: 37.9 F (3.3 C)
Dew Point: 9.0 F (-12.8 C)
Relative Humidity: 29%
Pressure (altimeter): 30.16 in. Hg (1021 hPa)
ob: KFLG 232257Z 25005KT 10SM CLR 03/M13 A3016 RMK AO2 SLP225 T00331128
cycle: 23

Station Type Date Time Source
KFLG TAF 2019/02/23 18:42 UTC NOAA

TAF KFLG 231739Z 2318/2418 23007KT P6SM SKC
FM240300 VRB03KT P6SM BKN200


Example: see airport list